createdAt,value
2019-05-03T00:00:06.332Z,65.62
2019-05-03T00:02:57.580Z,65.75
2019-05-03T00:05:52.986Z,66.19
2019-05-03T00:08:23.713Z,64.96
2019-05-03T00:10:54.280Z,65.12
2019-05-03T00:13:24.756Z,65.20
2019-05-03T00:16:13.986Z,66.40
2019-05-03T00:18:44.787Z,66.09
2019-05-03T00:21:15.245Z,65.77
2019-05-03T00:23:45.589Z,65.47
2019-05-03T00:26:16.062Z,65.41
2019-05-03T00:28:46.866Z,65.80
2019-05-03T00:31:17.224Z,66.41
2019-05-03T00:33:51.581Z,66.80
2019-05-03T00:36:49.814Z,66.88
2019-05-03T00:39:32.469Z,66.77
2019-05-03T00:42:02.949Z,66.80
2019-05-03T00:44:33.772Z,67.44
2019-05-03T00:47:04.753Z,67.71
2019-05-03T00:49:35.107Z,67.91
2019-05-03T00:52:05.635Z,68.12
2019-05-03T00:54:35.966Z,67.86
2019-05-03T00:57:07.579Z,68.62
2019-05-03T00:59:38.315Z,68.92
2019-05-03T01:02:11.650Z,68.83
2019-05-03T01:04:42.729Z,68.45
2019-05-03T01:07:13.128Z,68.57
2019-05-03T01:09:43.454Z,68.70
2019-05-03T01:12:13.883Z,68.54
2019-05-03T01:14:47.553Z,69.68
2019-05-03T01:17:17.922Z,69.20
2019-05-03T01:19:48.374Z,68.94
2019-05-03T01:22:19.110Z,68.91
2019-05-03T01:24:49.455Z,69.08
2019-05-03T01:27:21.988Z,68.97
2019-05-03T01:29:52.383Z,68.83
2019-05-03T01:32:22.827Z,69.20
2019-05-03T01:34:53.551Z,69.11
2019-05-03T01:37:25.291Z,69.37
2019-05-03T01:39:55.680Z,69.70
2019-05-03T01:42:26.243Z,69.65
2019-05-03T01:44:56.581Z,69.86
2019-05-03T01:47:41.932Z,70.29
2019-05-03T01:50:20.555Z,70.47
2019-05-03T01:52:52.440Z,70.48
2019-05-03T01:55:24.772Z,70.69
2019-05-03T01:57:55.523Z,70.70
2019-05-03T02:00:27.580Z,70.91
2019-05-03T02:03:05.383Z,71.53
2019-05-03T02:06:03.731Z,71.71
2019-05-03T02:08:34.040Z,71.58
2019-05-03T02:11:04.873Z,71.44
2019-05-03T02:13:35.352Z,71.41
2019-05-03T02:16:05.759Z,71.45
2019-05-03T02:18:36.467Z,71.35
2019-05-03T02:21:07.269Z,71.49
2019-05-03T02:23:37.548Z,71.57
2019-05-03T02:26:08.291Z,71.46
2019-05-03T02:28:38.891Z,71.77
2019-05-03T02:31:09.423Z,71.83
2019-05-03T02:33:39.905Z,71.81
2019-05-03T02:36:13.290Z,72.03
2019-05-03T02:38:43.123Z,72.18
2019-05-03T02:41:13.717Z,72.35
2019-05-03T02:43:49.775Z,73.47
2019-05-03T02:46:57.772Z,73.84
2019-05-03T02:49:35.472Z,75.75
2019-05-03T02:52:06.619Z,74.90
2019-05-03T02:54:38.521Z,75.42
2019-05-03T02:57:09.268Z,75.86
2019-05-03T02:59:39.595Z,76.59
2019-05-03T03:02:10.142Z,76.45
2019-05-03T03:04:41.803Z,75.87
2019-05-03T03:07:15.165Z,75.91
2019-05-03T03:09:45.737Z,75.02
2019-05-03T03:12:17.548Z,74.54
2019-05-03T03:14:49.419Z,75.35
2019-05-03T03:17:25.447Z,75.62
2019-05-03T03:19:57.827Z,75.89
2019-05-03T03:22:30.233Z,75.74
2019-05-03T03:25:05.289Z,76.88
2019-05-03T03:27:37.521Z,76.92
2019-05-03T03:30:29.000Z,76.43
2019-05-03T03:33:00.984Z,76.71
2019-05-03T03:35:37.617Z,76.44
2019-05-03T03:38:05.881Z,76.60
2019-05-03T03:40:36.774Z,75.87
2019-05-03T03:43:08.876Z,75.89
2019-05-03T03:45:41.287Z,76.11
2019-05-03T03:48:15.849Z,76.04
2019-05-03T03:50:47.976Z,75.77
2019-05-03T03:53:20.161Z,75.69
2019-05-03T03:55:52.031Z,75.63
2019-05-03T03:58:23.231Z,75.95
2019-05-03T04:00:55.466Z,76.58
2019-05-03T04:03:27.394Z,76.12
2019-05-03T04:05:57.898Z,76.34
2019-05-03T04:08:28.819Z,76.90
2019-05-03T04:10:59.723Z,75.84
2019-05-03T04:13:31.641Z,75.29
2019-05-03T04:16:20.984Z,75.71
2019-05-03T04:19:05.737Z,75.05
2019-05-03T04:21:35.971Z,74.55
2019-05-03T04:24:06.658Z,73.72
2019-05-03T04:26:38.315Z,73.20
2019-05-03T04:29:08.739Z,71.50
2019-05-03T04:31:39.180Z,72.29
2019-05-03T04:34:10.018Z,72.04
2019-05-03T04:36:40.455Z,70.10
2019-05-03T04:39:10.775Z,70.51
2019-05-03T04:41:41.459Z,70.40
2019-05-03T04:44:15.313Z,70.11
2019-05-03T04:46:46.482Z,69.72
2019-05-03T04:49:16.907Z,69.43
2019-05-03T04:51:48.253Z,68.87
2019-05-03T04:54:37.189Z,68.44
2019-05-03T04:57:07.661Z,67.74
2019-05-03T04:59:38.132Z,66.94
2019-05-03T05:02:09.908Z,66.31
2019-05-03T05:04:40.460Z,64.66
2019-05-03T05:07:10.802Z,62.91
2019-05-03T05:09:41.441Z,62.17
2019-05-03T05:12:12.142Z,63.10
2019-05-03T05:14:42.541Z,62.56
2019-05-03T05:17:16.298Z,61.95
2019-05-03T05:19:54.811Z,61.81
2019-05-03T05:22:28.599Z,61.44
2019-05-03T05:25:00.792Z,60.69
2019-05-03T05:27:49.481Z,61.11
2019-05-03T05:30:16.097Z,60.13
2019-05-03T05:32:46.871Z,59.30
2019-05-03T05:35:17.149Z,59.03
2019-05-03T05:37:47.845Z,58.42
2019-05-03T05:40:21.598Z,57.14
2019-05-03T05:42:54.574Z,57.25
2019-05-03T05:45:24.747Z,58.20
2019-05-03T05:48:05.573Z,57.55
2019-05-03T05:50:38.377Z,57.00
2019-05-03T05:53:09.199Z,57.69
2019-05-03T05:56:05.046Z,58.12
2019-05-03T05:58:39.014Z,57.66
2019-05-03T06:01:14.784Z,57.56
2019-05-03T06:03:45.110Z,56.43
2019-05-03T06:06:21.346Z,56.82
2019-05-03T06:09:05.850Z,56.25
2019-05-03T06:11:58.342Z,56.12
2019-05-03T06:14:36.534Z,55.46
2019-05-03T06:17:21.230Z,55.48
2019-05-03T06:20:09.865Z,54.58
2019-05-03T06:22:47.267Z,54.14
2019-05-03T06:25:26.603Z,53.38
2019-05-03T06:27:55.821Z,53.74
2019-05-03T06:30:41.963Z,53.29
2019-05-03T06:33:14.298Z,53.26
2019-05-03T06:35:44.593Z,52.70
2019-05-03T06:38:16.331Z,51.96
2019-05-03T06:40:46.847Z,51.01
2019-05-03T06:43:17.258Z,51.05
2019-05-03T06:45:50.348Z,50.41
2019-05-03T06:48:22.336Z,49.56
2019-05-03T06:50:52.139Z,50.37
2019-05-03T06:53:22.547Z,50.20
2019-05-03T06:55:52.907Z,48.65
2019-05-03T06:58:31.305Z,48.62
2019-05-03T07:01:21.682Z,48.03
2019-05-03T07:03:56.244Z,48.70
2019-05-03T07:06:40.627Z,47.49
2019-05-03T07:09:21.118Z,47.64
2019-05-03T07:11:51.441Z,47.57
2019-05-03T07:14:22.086Z,46.96
2019-05-03T07:16:52.777Z,46.10
2019-05-03T07:19:24.880Z,45.99
2019-05-03T07:21:55.187Z,45.91
2019-05-03T07:24:25.604Z,45.78
2019-05-03T07:26:58.951Z,44.96
2019-05-03T07:29:28.456Z,44.76
2019-05-03T07:31:58.764Z,43.78
2019-05-03T07:34:29.533Z,43.32
2019-05-03T07:37:01.086Z,42.55
2019-05-03T07:39:31.416Z,42.68
2019-05-03T07:42:02.028Z,42.87
2019-05-03T07:44:34.575Z,42.30
2019-05-03T07:47:05.011Z,43.39
2019-05-03T07:49:35.888Z,42.90
2019-05-03T07:52:06.770Z,42.32
2019-05-03T07:54:37.061Z,42.07
2019-05-03T07:57:27.387Z,41.03
2019-05-03T07:59:57.772Z,41.34
2019-05-03T08:02:28.419Z,41.34
2019-05-03T08:04:59.266Z,41.14
2019-05-03T08:07:29.580Z,40.37
2019-05-03T08:10:00.083Z,40.37
2019-05-03T08:12:30.762Z,39.70
2019-05-03T08:15:01.108Z,39.92
2019-05-03T08:17:31.498Z,38.71
2019-05-03T08:20:02.250Z,38.71
2019-05-03T08:22:34.510Z,40.20
2019-05-03T08:25:05.507Z,39.31
2019-05-03T08:27:36.237Z,39.31
2019-05-03T08:30:08.904Z,39.39
2019-05-03T08:32:52.079Z,39.39
2019-05-03T08:35:44.755Z,39.10
2019-05-03T08:38:15.529Z,38.33
2019-05-03T08:40:47.628Z,37.91
2019-05-03T08:43:18.158Z,37.32
2019-05-03T08:45:48.695Z,37.44
2019-05-03T08:48:19.022Z,37.78
2019-05-03T08:50:49.421Z,37.27
2019-05-03T08:53:20.179Z,36.28
2019-05-03T08:55:50.470Z,34.89
2019-05-03T08:58:20.824Z,34.67
2019-05-03T09:00:51.511Z,34.77
2019-05-03T09:03:21.889Z,34.92
2019-05-03T09:05:56.236Z,32.83
2019-05-03T09:08:25.096Z,32.70
2019-05-03T09:10:59.962Z,32.79
2019-05-03T09:13:48.393Z,31.53
2019-05-03T09:16:18.802Z,30.69
2019-05-03T09:18:50.279Z,30.69
2019-05-03T09:21:20.969Z,29.63
2019-05-03T09:23:51.436Z,31.28
2019-05-03T09:26:21.845Z,32.05
2019-05-03T09:28:52.733Z,31.49
2019-05-03T09:31:24.669Z,31.66
2019-05-03T09:33:55.181Z,30.81
2019-05-03T09:36:26.005Z,29.12
2019-05-03T09:38:56.321Z,30.31
2019-05-03T09:41:27.090Z,30.04
2019-05-03T09:43:57.468Z,30.25
2019-05-03T09:46:27.927Z,32.05
2019-05-03T09:49:12.614Z,30.09
2019-05-03T09:51:31.182Z,30.70
2019-05-03T09:54:08.196Z,29.31
2019-05-03T09:56:58.676Z,28.47
2019-05-03T09:59:30.795Z,26.79
2019-05-03T10:02:04.621Z,26.92
2019-05-03T10:04:36.592Z,25.97
2019-05-03T10:07:07.505Z,24.67
2019-05-03T10:09:37.826Z,25.91
2019-05-03T10:12:12.320Z,24.70
2019-05-03T10:14:42.663Z,25.26
2019-05-03T10:17:31.210Z,24.71
2019-05-03T10:20:02.166Z,24.74
2019-05-03T10:22:34.891Z,23.43
2019-05-03T10:25:05.854Z,23.85
2019-05-03T10:27:46.041Z,24.23
2019-05-03T10:30:21.551Z,24.74
2019-05-03T10:32:57.999Z,24.33
2019-05-03T10:35:28.623Z,23.66
2019-05-03T10:37:59.119Z,24.42
2019-05-03T10:40:29.432Z,24.81
2019-05-03T10:43:01.053Z,24.01
2019-05-03T10:45:31.385Z,23.89
2019-05-03T10:48:02.027Z,24.33
2019-05-03T10:50:34.239Z,22.82
2019-05-03T10:53:09.480Z,23.57
2019-05-03T10:55:41.837Z,22.84
2019-05-03T10:58:17.414Z,22.85
2019-05-03T11:00:53.344Z,21.65
2019-05-03T11:03:23.041Z,21.37
2019-05-03T11:05:54.862Z,21.25
2019-05-03T11:08:25.474Z,20.39
2019-05-03T11:10:56.105Z,19.00
2019-05-03T11:13:26.980Z,18.71
2019-05-03T11:15:57.314Z,18.77
2019-05-03T11:18:28.265Z,18.97
2019-05-03T11:20:58.587Z,18.77
2019-05-03T11:23:29.277Z,17.96
2019-05-03T11:26:00.005Z,17.35
2019-05-03T11:28:30.387Z,16.76
2019-05-03T11:31:20.011Z,16.97
2019-05-03T11:33:50.850Z,16.87
2019-05-03T11:36:32.265Z,18.05
2019-05-03T11:39:04.897Z,18.84
2019-05-03T11:41:37.121Z,18.58
2019-05-03T11:44:25.017Z,18.42
2019-05-03T11:46:55.745Z,19.31
2019-05-03T11:49:26.023Z,18.10
2019-05-03T11:51:56.601Z,17.86
2019-05-03T11:54:27.288Z,18.27
2019-05-03T11:56:59.502Z,19.72
2019-05-03T11:59:30.238Z,19.21
2019-05-03T12:02:10.108Z,19.09
2019-05-03T12:04:40.552Z,19.14
2019-05-03T12:07:15.005Z,19.08
2019-05-03T12:09:45.253Z,20.07
2019-05-03T12:12:29.486Z,20.17
2019-05-03T12:14:59.768Z,19.46
2019-05-03T12:17:35.009Z,19.17
2019-05-03T12:20:07.942Z,18.26
2019-05-03T12:22:39.394Z,18.08
2019-05-03T12:25:12.324Z,17.48
2019-05-03T12:27:44.482Z,16.68
2019-05-03T12:30:15.823Z,17.20
2019-05-03T12:32:46.179Z,17.03
2019-05-03T12:35:16.641Z,16.94
2019-05-03T12:37:47.503Z,16.80
2019-05-03T12:40:17.814Z,16.50
2019-05-03T12:42:48.100Z,15.42
2019-05-03T12:45:18.795Z,15.13
2019-05-03T12:47:49.125Z,16.94
2019-05-03T12:50:19.610Z,17.37
2019-05-03T12:52:50.843Z,17.03
2019-05-03T12:55:21.537Z,16.61
2019-05-03T12:57:51.865Z,16.57
2019-05-03T13:00:40.681Z,17.99
2019-05-03T13:03:18.011Z,18.26
2019-05-03T13:05:48.310Z,18.31
2019-05-03T13:08:39.193Z,18.32
2019-05-03T13:11:10.395Z,19.28
2019-05-03T13:13:40.788Z,19.19
2019-05-03T13:16:15.177Z,19.74
2019-05-03T13:18:45.925Z,19.83
2019-05-03T13:21:16.293Z,19.35
2019-05-03T13:23:46.671Z,20.10
2019-05-03T13:26:17.299Z,20.08
2019-05-03T13:28:47.740Z,20.11
2019-05-03T13:31:18.470Z,20.48
2019-05-03T13:33:48.800Z,20.38
2019-05-03T13:36:19.191Z,20.82
2019-05-03T13:38:49.755Z,21.08
2019-05-03T13:41:20.078Z,21.63
2019-05-03T13:43:50.358Z,21.90
2019-05-03T13:46:21.177Z,21.04
2019-05-03T13:48:51.497Z,21.22
2019-05-03T13:51:21.828Z,20.83
2019-05-03T13:53:54.903Z,21.79
2019-05-03T13:56:25.026Z,22.12
2019-05-03T13:58:55.636Z,20.90
2019-05-03T14:01:26.112Z,19.96
2019-05-03T14:03:56.404Z,20.53
2019-05-03T14:06:27.204Z,20.16
2019-05-03T14:08:57.657Z,19.63
2019-05-03T14:11:28.103Z,19.18
2019-05-03T14:13:58.873Z,18.84
2019-05-03T14:16:29.794Z,19.69
2019-05-03T14:19:05.549Z,18.94
2019-05-03T14:21:41.325Z,19.58
2019-05-03T14:24:13.028Z,20.90
2019-05-03T14:26:44.754Z,20.95
2019-05-03T14:29:15.523Z,20.62
2019-05-03T14:31:45.847Z,20.75
2019-05-03T14:34:17.526Z,20.14
2019-05-03T14:36:48.408Z,20.74
2019-05-03T14:39:18.712Z,20.88
2019-05-03T14:41:49.497Z,20.47
2019-05-03T14:44:19.952Z,21.37
2019-05-03T14:46:50.355Z,21.51
2019-05-03T14:49:20.827Z,21.54
2019-05-03T14:51:51.657Z,21.78
2019-05-03T14:54:24.925Z,21.31
2019-05-03T14:57:16.714Z,21.88
2019-05-03T15:00:17.146Z,21.61
2019-05-03T15:02:58.075Z,21.71
2019-05-03T15:05:29.890Z,21.37
2019-05-03T15:08:00.196Z,21.56
2019-05-03T15:10:31.608Z,21.38
2019-05-03T15:13:05.239Z,21.48
2019-05-03T15:15:35.727Z,21.41
2019-05-03T15:18:06.429Z,21.67
2019-05-03T15:20:37.588Z,23.22
2019-05-03T15:23:08.082Z,24.95
2019-05-03T15:25:38.493Z,26.39
2019-05-03T15:28:09.233Z,28.49
2019-05-03T15:30:39.530Z,28.84
2019-05-03T15:33:09.856Z,28.58
2019-05-03T15:35:40.549Z,27.84
2019-05-03T15:38:11.194Z,28.25
2019-05-03T15:40:41.836Z,29.35
2019-05-03T15:43:28.845Z,28.80
2019-05-03T15:46:17.336Z,29.18
2019-05-03T15:48:50.831Z,29.03
2019-05-03T15:51:21.122Z,29.03
2019-05-03T15:53:51.480Z,29.66
2019-05-03T15:56:22.198Z,29.40
2019-05-03T15:58:52.700Z,28.88
2019-05-03T16:01:24.867Z,29.13
2019-05-03T16:03:55.742Z,29.73
2019-05-03T16:06:26.437Z,28.88
2019-05-03T16:08:57.039Z,29.64
2019-05-03T16:11:27.333Z,28.92
2019-05-03T16:13:57.694Z,29.39
2019-05-03T16:16:28.381Z,28.97
2019-05-03T16:18:59.283Z,29.64
2019-05-03T16:21:30.031Z,29.12
2019-05-03T16:24:00.767Z,29.24
2019-05-03T16:26:31.508Z,29.61
2019-05-03T16:29:09.839Z,30.58
2019-05-03T16:31:40.587Z,29.66
2019-05-03T16:34:11.355Z,29.78
2019-05-03T16:36:41.878Z,30.11
2019-05-03T16:39:15.303Z,30.14
2019-05-03T16:41:45.628Z,30.67
2019-05-03T16:44:16.550Z,31.27
2019-05-03T16:46:47.403Z,31.59
2019-05-03T16:49:17.849Z,31.89
2019-05-03T16:51:48.596Z,31.81
2019-05-03T16:54:19.359Z,31.65
2019-05-03T16:56:49.663Z,31.85
2019-05-03T16:59:20.179Z,32.18
2019-05-03T17:01:50.970Z,32.68
2019-05-03T17:04:35.550Z,32.61
2019-05-03T17:07:15.226Z,32.81
2019-05-03T17:09:49.765Z,32.05
2019-05-03T17:12:25.703Z,33.02
2019-05-03T17:14:56.997Z,31.59
2019-05-03T17:17:27.937Z,32.67
2019-05-03T17:19:58.509Z,32.84
2019-05-03T17:22:28.867Z,32.26
2019-05-03T17:24:59.628Z,32.53
2019-05-03T17:27:29.992Z,33.16
2019-05-03T17:30:00.318Z,33.18
2019-05-03T17:32:30.778Z,35.04
2019-05-03T17:35:01.449Z,35.84
2019-05-03T17:37:31.730Z,35.79
2019-05-03T17:40:21.094Z,38.86
2019-05-03T17:43:07.433Z,39.70
2019-05-03T17:45:41.748Z,38.54
2019-05-03T17:48:12.546Z,37.60
2019-05-03T17:50:45.438Z,40.17
2019-05-03T17:53:29.643Z,40.17
2019-05-03T17:56:06.375Z,39.43
2019-05-03T17:58:55.164Z,39.43
2019-05-03T18:01:44.659Z,36.71
2019-05-03T18:11:54.956Z,35.01
2019-05-03T18:14:25.273Z,34.91
2019-05-03T18:16:55.998Z,34.62
2019-05-03T18:19:26.698Z,34.32
2019-05-03T18:21:57.047Z,34.49
2019-05-03T18:24:27.453Z,34.54
2019-05-03T18:26:58.242Z,34.67
2019-05-03T18:29:28.527Z,33.93
2019-05-03T18:32:00.314Z,33.93
2019-05-03T18:34:33.464Z,35.02
2019-05-03T18:37:04.865Z,35.47
2019-05-03T18:39:38.454Z,35.54
2019-05-03T18:42:12.414Z,36.14
2019-05-03T18:44:47.188Z,38.19
2019-05-03T18:47:25.076Z,40.07
2019-05-03T18:49:56.441Z,40.07
2019-05-03T18:52:29.140Z,39.69
2019-05-03T18:54:59.777Z,40.83
2019-05-03T18:57:30.326Z,43.61
2019-05-03T19:00:00.930Z,46.05
2019-05-03T19:02:33.481Z,47.11
2019-05-03T19:05:05.107Z,45.40
2019-05-03T19:07:54.971Z,45.61
2019-05-03T19:10:45.671Z,49.44
2019-05-03T19:13:22.437Z,52.13
2019-05-03T19:15:55.070Z,52.96
2019-05-03T19:18:35.394Z,50.50
2019-05-03T19:21:06.347Z,48.95
2019-05-03T19:23:36.802Z,44.57
2019-05-03T19:26:07.252Z,42.93
2019-05-03T19:28:37.661Z,40.58
2019-05-03T19:31:08.597Z,42.54
2019-05-03T19:33:39.637Z,45.78
2019-05-03T19:36:10.030Z,46.87
2019-05-03T19:38:40.777Z,52.20
2019-05-03T19:41:11.629Z,50.93
2019-05-03T19:43:42.089Z,46.06
2019-05-03T19:46:12.635Z,45.43
2019-05-03T19:48:45.246Z,44.77
2019-05-03T19:51:15.069Z,44.29
2019-05-03T19:54:05.379Z,43.72
2019-05-03T19:56:35.772Z,44.40
2019-05-03T19:59:09.657Z,44.64
2019-05-03T20:01:59.345Z,45.93
2019-05-03T20:04:57.414Z,44.33
2019-05-03T20:07:45.204Z,46.87
2019-05-03T20:10:18.072Z,48.31
2019-05-03T20:12:48.250Z,50.72
2019-05-03T20:15:18.721Z,51.01
2019-05-03T20:17:57.420Z,50.85
2019-05-03T20:20:21.824Z,51.61
2019-05-03T20:22:52.116Z,50.61
2019-05-03T20:25:24.409Z,51.22
2019-05-03T20:27:55.952Z,52.26
2019-05-03T20:30:26.569Z,53.32
2019-05-03T20:32:57.356Z,55.60
2019-05-03T20:35:28.181Z,54.95
2019-05-03T20:37:58.546Z,56.68
2019-05-03T20:40:29.299Z,56.78
2019-05-03T20:43:13.002Z,58.75
2019-05-03T20:46:04.947Z,58.81
2019-05-03T20:48:36.350Z,58.32
2019-05-03T20:51:06.859Z,58.34
2019-05-03T20:53:37.147Z,57.93
2019-05-03T20:56:07.861Z,58.22
2019-05-03T20:58:38.154Z,58.53
2019-05-03T21:01:11.893Z,58.47
2019-05-03T21:03:45.098Z,58.87
2019-05-03T21:06:18.238Z,58.99
2019-05-03T21:08:53.160Z,59.86
2019-05-03T21:11:21.423Z,61.65
2019-05-03T21:13:51.719Z,61.48
2019-05-03T21:16:29.992Z,62.35
2019-05-03T21:19:16.832Z,62.43
2019-05-03T21:21:50.024Z,62.65
2019-05-03T21:24:34.872Z,62.85
2019-05-03T21:27:05.831Z,62.69
2019-05-03T21:29:49.595Z,62.16
2019-05-03T21:32:20.423Z,61.76
2019-05-03T21:34:51.088Z,61.95
2019-05-03T21:37:25.243Z,61.29
2019-05-03T21:39:55.896Z,60.71
2019-05-03T21:42:26.238Z,60.78
2019-05-03T21:44:56.522Z,60.80
2019-05-03T21:47:35.161Z,61.80
2019-05-03T21:50:07.172Z,62.49
2019-05-03T21:52:37.512Z,62.79
2019-05-03T21:55:08.253Z,63.32
2019-05-03T21:57:39.009Z,63.86
2019-05-03T22:00:11.005Z,64.16
2019-05-03T22:02:42.943Z,63.87
2019-05-03T22:05:14.213Z,63.78
2019-05-03T22:07:45.697Z,64.02
2019-05-03T22:10:16.292Z,63.64
2019-05-03T22:12:46.615Z,63.44
2019-05-03T22:15:32.113Z,64.03
2019-05-03T22:18:18.133Z,64.33
2019-05-03T22:21:11.735Z,64.42
2019-05-03T22:24:14.763Z,64.02
2019-05-03T22:26:52.882Z,62.71
2019-05-03T22:29:25.427Z,62.99
2019-05-03T22:31:56.383Z,62.74
2019-05-03T22:34:26.773Z,62.74
2019-05-03T22:36:57.286Z,62.78
2019-05-03T22:39:27.564Z,61.53
2019-05-03T22:41:58.264Z,62.00
2019-05-03T22:44:28.628Z,62.13
2019-05-03T22:46:58.994Z,61.91
2019-05-03T22:49:29.378Z,60.98
2019-05-03T22:51:59.711Z,59.40
2019-05-03T22:54:30.027Z,57.74
2019-05-03T22:57:00.319Z,56.21
2019-05-03T22:59:30.839Z,56.73
2019-05-03T23:02:01.378Z,53.99
2019-05-03T23:04:31.675Z,52.72
2019-05-03T23:07:02.102Z,51.56
2019-05-03T23:09:32.379Z,51.13
2019-05-03T23:12:02.726Z,50.87
2019-05-03T23:14:34.746Z,50.83
2019-05-03T23:17:05.192Z,51.57
2019-05-03T23:19:37.172Z,52.00
2019-05-03T23:22:25.886Z,53.72
2019-05-03T23:24:57.179Z,54.58
2019-05-03T23:27:27.484Z,55.08
2019-05-03T23:29:57.961Z,55.04
2019-05-03T23:32:28.388Z,54.42
2019-05-03T23:34:58.729Z,54.11
2019-05-03T23:37:29.113Z,54.27
2019-05-03T23:39:59.435Z,54.27
2019-05-03T23:42:29.893Z,55.03
2019-05-03T23:45:02.349Z,53.93
2019-05-03T23:47:37.600Z,54.01
2019-05-03T23:50:10.105Z,54.46
2019-05-03T23:52:40.453Z,54.73
2019-05-03T23:55:22.808Z,54.15
2019-05-03T23:57:55.296Z,54.12
